Time;durP1;ratioP1;P1;durP2;ratioP2;P2;SDS_P1;SDS_P2;PMS_P1;PMS_P2;Temp;Humidity;BMP_temperature;BMP_pressure;BME280_temperature;BME280_humidity;BME280_pressure;Samples;Min_cycle;Max_cycle;Signal;HPM_P1;HPM_P2
2021/11/18 00:02:19;;;;;;;20.53;6.17;;;7.60;99.90;;;;;;4904997;23;20487;-55
2021/11/18 00:04:46;;;;;;;13.13;6.27;;;7.70;99.90;;;;;;4897966;29;20483;-59
2021/11/18 00:07:13;;;;;;;14.60;5.73;;;7.60;99.90;;;;;;4889539;23;20496;-59
2021/11/18 00:09:42;;;;;;;10.80;6.70;;;7.70;99.90;;;;;;4879059;29;20480;-57
2021/11/18 00:12:10;;;;;;;12.73;6.27;;;7.70;99.90;;;;;;4886632;23;20491;-57
2021/11/18 00:14:37;;;;;;;20.90;7.63;;;7.60;99.90;;;;;;4879196;29;20480;-57
2021/11/18 00:17:04;;;;;;;17.13;7.10;;;7.60;99.90;;;;;;4896674;23;20502;-57
2021/11/18 00:19:38;;;;;;;12.80;6.17;;;7.60;99.90;;;;;;4896626;29;20476;-59
2021/11/18 00:22:05;;;;;;;13.67;5.73;;;7.60;99.90;;;;;;4919476;23;20563;-56
2021/11/18 00:24:31;;;;;;;14.60;7.30;;;7.60;99.90;;;;;;4897274;29;20447;-55
2021/11/18 00:26:58;;;;;;;11.20;5.80;;;7.60;99.90;;;;;;4897477;23;20559;-52
2021/11/18 00:29:25;;;;;;;14.10;6.07;;;7.60;99.90;;;;;;4879137;29;20823;-54
2021/11/18 00:31:51;;;;;;;10.07;4.73;;;7.60;99.90;;;;;;4891292;23;20511;-56
2021/11/18 00:34:19;;;;;;;12.53;5.63;;;7.60;99.90;;;;;;4897360;29;20447;-53
2021/11/18 00:36:47;;;;;;;22.83;6.53;;;7.60;99.90;;;;;;4903732;23;20479;-50
2021/11/18 00:39:14;;;;;;;13.53;6.73;;;7.60;99.90;;;;;;4897030;29;20439;-56
2021/11/18 00:41:46;;;;;;;14.93;6.60;;;7.60;99.90;;;;;;4918731;23;20480;-55
2021/11/18 00:44:12;;;;;;;9.33;5.13;;;7.60;99.90;;;;;;4896809;29;20456;-58
2021/11/18 00:46:39;;;;;;;12.07;6.47;;;7.60;99.90;;;;;;4898270;29;20455;-59
2021/11/18 00:49:06;;;;;;;15.53;5.90;;;7.60;99.90;;;;;;4904740;23;21000;-57
2021/11/18 00:51:33;;;;;;;8.90;4.47;;;7.60;99.90;;;;;;4897605;29;20491;-57
2021/11/18 00:54:04;;;;;;;14.50;5.30;;;7.60;99.90;;;;;;4905262;23;20495;-55
2021/11/18 00:56:32;;;;;;;12.20;6.87;;;7.60;99.90;;;;;;4897038;29;20481;-58
2021/11/18 00:58:59;;;;;;;13.40;6.97;;;7.60;99.90;;;;;;4919139;23;20495;-53
2021/11/18 01:01:28;;;;;;;20.33;6.87;;;7.60;99.90;;;;;;4897580;29;20431;-57
2021/11/18 01:03:57;;;;;;;9.50;5.20;;;7.50;99.90;;;;;;4919368;23;20507;-58
2021/11/18 01:06:23;;;;;;;14.40;5.53;;;7.50;99.90;;;;;;4897652;29;20480;-48
2021/11/18 01:08:50;;;;;;;6.37;5.20;;;7.50;99.90;;;;;;4904465;23;20479;-54
2021/11/18 01:11:21;;;;;;;8.30;4.93;;;7.40;99.90;;;;;;4897750;29;20512;-57
2021/11/18 01:13:49;;;;;;;10.37;5.37;;;7.40;99.90;;;;;;4904873;23;20487;-47
2021/11/18 01:16:19;;;;;;;15.57;5.83;;;7.40;99.90;;;;;;4897253;29;20499;-55
2021/11/18 01:18:45;;;;;;;8.33;4.97;;;7.50;99.90;;;;;;4903947;23;20493;-55
2021/11/18 01:21:13;;;;;;;15.53;6.17;;;7.50;99.90;;;;;;4896452;29;20475;-56
2021/11/18 01:23:40;;;;;;;19.87;5.93;;;7.50;99.90;;;;;;4918874;23;20487;-57
2021/11/18 01:26:11;;;;;;;17.70;4.87;;;7.50;99.90;;;;;;4897351;29;20814;-56
2021/11/18 01:28:39;;;;;;;12.83;6.53;;;7.50;99.90;;;;;;4905523;23;20436;-54
2021/11/18 01:31:07;;;;;;;19.23;7.33;;;7.40;99.90;;;;;;4899390;29;20454;-59
2021/11/18 01:35:59;;;;;;;13.80;5.93;;;7.40;99.90;;;;;;4905848;23;20538;-56
2021/11/18 01:38:26;;;;;;;10.13;5.53;;;7.40;99.90;;;;;;4900386;29;20242;-48
2021/11/18 01:40:57;;;;;;;11.93;4.67;;;7.40;99.90;;;;;;4909139;23;20980;-53
2021/11/18 01:43:25;;;;;;;12.63;5.53;;;7.40;99.90;;;;;;4901692;29;20531;-57
2021/11/18 01:45:54;;;;;;;19.00;6.00;;;7.50;99.90;;;;;;4908538;23;20486;-56
2021/11/18 01:48:23;;;;;;;10.27;5.50;;;7.40;99.90;;;;;;4901077;29;20515;-58
2021/11/18 01:50:56;;;;;;;13.30;5.37;;;7.40;99.90;;;;;;4907311;23;20502;-52
2021/11/18 01:53:27;;;;;;;14.93;5.50;;;7.40;99.90;;;;;;4899583;29;20484;-52
2021/11/18 01:55:53;;;;;;;8.40;4.40;;;7.40;99.90;;;;;;4921331;23;21032;-55
2021/11/18 01:58:22;;;;;;;13.17;5.70;;;7.50;99.90;;;;;;4900705;29;20506;-57
2021/11/18 02:00:58;;;;;;;19.60;7.33;;;7.40;99.90;;;;;;4907149;23;20495;-52
2021/11/18 02:03:25;;;;;;;11.27;4.90;;;7.40;99.90;;;;;;4900510;29;20439;-56
2021/11/18 02:05:54;;;;;;;13.00;6.13;;;7.40;99.90;;;;;;4906888;23;20533;-59
2021/11/18 02:08:23;;;;;;;18.93;6.53;;;7.40;99.90;;;;;;4899460;29;20483;-55
2021/11/18 02:11:01;;;;;;;11.77;7.77;;;7.40;99.90;;;;;;4916505;23;20507;-54
2021/11/18 02:13:28;;;;;;;10.57;6.07;;;7.40;99.90;;;;;;4882703;29;20496;-59
2021/11/18 02:15:58;;;;;;;12.07;5.40;;;7.40;99.90;;;;;;4909089;23;20495;-59
2021/11/18 02:18:27;;;;;;;17.00;6.03;;;7.30;99.90;;;;;;4899486;29;20475;-56
2021/11/18 02:20:57;;;;;;;14.83;6.50;;;7.30;99.90;;;;;;4904963;23;20476;-59
2021/11/18 02:23:26;;;;;;;14.03;4.83;;;7.20;99.90;;;;;;4881214;29;20472;-57
2021/11/18 02:25:54;;;;;;;17.70;5.90;;;7.30;99.90;;;;;;4903525;23;20460;-59
2021/11/18 02:28:24;;;;;;;14.57;6.00;;;7.30;99.90;;;;;;4861735;29;20473;-59
2021/11/18 02:33:21;;;;;;;22.07;6.10;;;7.20;99.90;;;;;;4904326;23;20523;-59
2021/11/18 02:35:48;;;;;;;14.60;5.20;;;7.30;99.90;;;;;;4899409;29;20457;-58
2021/11/18 02:38:18;;;;;;;13.40;5.90;;;7.30;99.90;;;;;;4907386;23;20563;-58
2021/11/18 02:40:45;;;;;;;17.57;5.80;;;7.30;99.90;;;;;;4900625;29;20491;-56
2021/11/18 02:43:17;;;;;;;11.63;5.90;;;7.20;99.90;;;;;;4921661;23;20499;-52
2021/11/18 02:45:47;;;;;;;10.63;5.27;;;7.20;99.90;;;;;;4900796;29;20467;-53
2021/11/18 02:48:18;;;;;;;7.43;3.90;;;7.10;99.90;;;;;;4894690;23;20480;-54
2021/11/18 02:50:50;;;;;;;14.57;6.00;;;7.20;99.90;;;;;;4881905;29;20472;-58
2021/11/18 02:53:18;;;;;;;21.60;6.40;;;7.20;99.90;;;;;;4901282;23;20530;-59
2021/11/18 02:55:47;;;;;;;11.43;5.47;;;7.20;99.90;;;;;;4901474;29;20467;-58
2021/11/18 02:58:15;;;;;;;21.43;6.50;;;7.20;99.90;;;;;;4912024;23;20555;-65
2021/11/18 03:00:46;;;;;;;9.10;4.70;;;7.20;99.90;;;;;;4889885;29;20869;-69
2021/11/18 03:03:13;;;;;;;15.53;7.30;;;7.20;99.90;;;;;;4896777;23;20515;-66
2021/11/18 03:05:40;;;;;;;14.10;5.80;;;7.20;99.90;;;;;;4889541;29;20451;-68
2021/11/18 03:08:07;;;;;;;8.80;4.73;;;7.20;99.90;;;;;;4897027;23;20491;-67
2021/11/18 03:10:36;;;;;;;11.87;5.60;;;7.20;99.90;;;;;;4889740;29;20447;-69
2021/11/18 03:13:04;;;;;;;14.33;5.57;;;7.20;99.90;;;;;;4893030;23;20524;-67
2021/11/18 03:15:31;;;;;;;14.40;6.20;;;7.20;99.90;;;;;;4872458;29;20526;-69
2021/11/18 03:17:58;;;;;;;12.43;5.77;;;7.20;99.90;;;;;;4881437;23;20564;-64
2021/11/18 03:20:28;;;;;;;14.03;6.00;;;7.10;99.90;;;;;;4890461;29;20527;-65
2021/11/18 03:22:54;;;;;;;14.13;5.67;;;7.10;99.90;;;;;;4899081;23;20460;-69
2021/11/18 03:25:23;;;;;;;11.93;4.70;;;7.10;99.90;;;;;;4889678;29;20444;-70
2021/11/18 03:27:52;;;;;;;18.40;5.83;;;7.10;99.90;;;;;;4890073;29;20510;-65
2021/11/18 03:30:24;;;;;;;12.00;6.83;;;7.10;99.90;;;;;;4896497;23;20495;-71
2021/11/18 03:32:52;;;;;;;17.07;5.97;;;7.10;99.90;;;;;;4890065;29;20440;-68
2021/11/18 03:35:20;;;;;;;10.30;5.70;;;7.10;99.90;;;;;;4896750;23;20555;-70
2021/11/18 03:37:47;;;;;;;14.53;6.27;;;7.10;99.90;;;;;;4889692;29;20491;-69
2021/11/18 03:40:15;;;;;;;16.30;4.67;;;7.20;99.90;;;;;;4895720;23;20531;-67
2021/11/18 03:42:42;;;;;;;9.80;4.20;;;7.20;99.90;;;;;;4888644;29;20467;-69
2021/11/18 03:45:13;;;;;;;11.43;4.60;;;7.20;99.90;;;;;;4895453;23;21040;-71
2021/11/18 03:47:40;;;;;;;13.33;4.90;;;7.20;99.90;;;;;;4889219;29;20452;-70
2021/11/18 03:50:07;;;;;;;23.63;5.97;;;7.20;99.90;;;;;;4895946;23;20499;-69
2021/11/18 03:52:34;;;;;;;9.03;5.93;;;7.10;99.90;;;;;;4888908;29;20540;-71
2021/11/18 03:55:01;;;;;;;13.03;5.73;;;7.10;99.90;;;;;;4895496;23;20532;-69
2021/11/18 03:57:28;;;;;;;11.70;4.60;;;7.20;99.90;;;;;;4889189;29;20524;-62
2021/11/18 03:59:54;;;;;;;16.37;7.87;;;7.10;99.90;;;;;;4896883;23;20498;-69
2021/11/18 04:02:23;;;;;;;11.40;5.37;;;7.10;99.90;;;;;;4896657;23;20555;-66
2021/11/18 04:04:51;;;;;;;21.10;5.50;;;7.10;99.90;;;;;;4889276;29;20491;-66
2021/11/18 04:07:19;;;;;;;20.97;5.50;;;7.10;99.90;;;;;;4896095;23;20495;-71
2021/11/18 04:09:47;;;;;;;10.40;5.20;;;7.10;99.90;;;;;;4889771;29;20463;-65
2021/11/18 04:12:16;;;;;;;11.13;7.10;;;7.10;99.90;;;;;;4889839;29;20451;-71
2021/11/18 04:14:43;;;;;;;14.00;5.80;;;7.20;99.90;;;;;;4889050;29;20490;-65
2021/11/18 04:17:10;;;;;;;18.37;5.10;;;7.10;99.90;;;;;;4888630;29;20946;-71
2021/11/18 04:19:39;;;;;;;14.27;5.40;;;7.20;99.90;;;;;;4889315;29;20486;-64
2021/11/18 04:22:08;;;;;;;14.47;5.80;;;7.20;99.90;;;;;;4888867;29;20455;-68
2021/11/18 04:24:37;;;;;;;9.10;3.93;;;7.20;99.90;;;;;;4889509;29;20513;-70
2021/11/18 04:27:04;;;;;;;18.37;6.17;;;7.20;99.90;;;;;;4889088;29;20466;-71
2021/11/18 04:29:31;;;;;;;17.80;4.10;;;7.20;99.90;;;;;;4889136;29;20953;-70
2021/11/18 04:32:00;;;;;;;18.17;6.90;;;7.20;99.90;;;;;;4888553;29;20456;-70
2021/11/18 04:34:27;;;;;;;18.10;4.70;;;7.20;99.90;;;;;;4888791;29;20498;-70
2021/11/18 04:36:56;;;;;;;9.13;4.40;;;7.30;99.90;;;;;;4888731;29;20490;-67
2021/11/18 04:39:22;;;;;;;10.00;3.93;;;7.30;99.90;;;;;;4888008;29;20451;-71
2021/11/18 04:41:51;;;;;;;9.93;5.30;;;7.30;99.90;;;;;;4888507;29;20475;-71
2021/11/18 04:44:19;;;;;;;20.10;7.03;;;7.30;99.90;;;;;;4888498;29;20486;-67
2021/11/18 04:46:46;;;;;;;15.33;4.67;;;7.30;99.90;;;;;;4887632;29;20467;-71
2021/11/18 04:49:13;;;;;;;11.07;4.17;;;7.30;99.90;;;;;;4888886;29;20455;-71
2021/11/18 04:51:40;;;;;;;10.17;4.60;;;7.30;99.90;;;;;;4888347;29;20460;-71
2021/11/18 04:54:09;;;;;;;10.53;4.33;;;7.30;99.90;;;;;;4888049;29;20515;-61
2021/11/18 04:56:36;;;;;;;9.10;4.83;;;7.40;99.90;;;;;;4887914;29;20455;-72
2021/11/18 04:59:04;;;;;;;10.20;4.50;;;7.40;99.90;;;;;;4888344;29;20483;-71
2021/11/18 05:01:33;;;;;;;16.10;4.50;;;7.30;99.90;;;;;;4887526;29;20451;-67
2021/11/18 05:04:00;;;;;;;17.43;4.80;;;7.40;99.90;;;;;;4887230;29;20909;-71
2021/11/18 05:06:26;;;;;;;13.17;6.00;;;7.40;99.90;;;;;;4887031;29;20474;-72
2021/11/18 05:08:53;;;;;;;11.60;5.83;;;7.40;99.90;;;;;;4887022;29;20543;-71
2021/11/18 05:11:21;;;;;;;11.00;4.70;;;7.40;99.90;;;;;;4888145;29;20759;-67
2021/11/18 05:13:48;;;;;;;16.83;4.47;;;7.40;99.90;;;;;;4887690;29;20462;-71
2021/11/18 05:16:17;;;;;;;22.63;4.70;;;7.40;99.90;;;;;;4887750;29;20468;-71
2021/11/18 05:18:44;;;;;;;17.57;6.23;;;7.40;99.90;;;;;;4887389;29;20546;-68
2021/11/18 05:21:13;;;;;;;29.13;6.27;;;7.40;99.90;;;;;;4887046;29;20990;-71
2021/11/18 05:23:41;;;;;;;16.10;4.57;;;7.40;99.90;;;;;;4887003;29;20526;-71
2021/11/18 05:26:10;;;;;;;11.93;5.67;;;7.40;99.90;;;;;;4887054;29;20945;-64
2021/11/18 05:28:38;;;;;;;14.20;5.53;;;7.40;99.90;;;;;;4887180;29;20452;-69
2021/11/18 05:31:06;;;;;;;14.50;4.40;;;7.40;99.90;;;;;;4887576;29;20456;-71
2021/11/18 05:33:34;;;;;;;8.43;3.70;;;7.40;99.90;;;;;;4887769;29;20444;-69
2021/11/18 05:36:01;;;;;;;8.07;4.57;;;7.40;99.90;;;;;;4887209;29;20484;-71
2021/11/18 05:38:28;;;;;;;15.57;4.90;;;7.40;99.90;;;;;;4886447;29;20494;-71
2021/11/18 05:40:55;;;;;;;9.17;4.30;;;7.40;99.90;;;;;;4886140;29;20595;-71
2021/11/18 05:43:24;;;;;;;8.93;3.70;;;7.40;99.90;;;;;;4886666;29;20485;-70
2021/11/18 05:45:52;;;;;;;9.10;4.23;;;7.40;99.90;;;;;;4886882;29;20515;-72
2021/11/18 05:48:19;;;;;;;9.67;3.40;;;7.40;99.90;;;;;;4886093;29;20956;-71
2021/11/18 05:50:50;;;;;;;23.90;4.90;;;7.40;99.90;;;;;;4887135;29;20454;-70
2021/11/18 05:53:18;;;;;;;11.70;3.43;;;7.40;99.90;;;;;;4886981;29;20502;-71
2021/11/18 05:55:45;;;;;;;7.40;4.20;;;7.40;99.90;;;;;;4887565;29;20447;-69
2021/11/18 05:58:12;;;;;;;8.90;3.23;;;7.40;99.90;;;;;;4887246;29;20487;-70
2021/11/18 06:00:39;;;;;;;14.47;5.67;;;7.40;99.90;;;;;;4888055;29;20455;-72
2021/11/18 06:03:07;;;;;;;11.70;3.43;;;7.30;99.90;;;;;;4887898;29;20451;-71
2021/11/18 06:05:34;;;;;;;13.83;5.07;;;7.30;99.90;;;;;;4886777;29;20518;-63
2021/11/18 06:08:01;;;;;;;8.43;3.57;;;7.30;99.90;;;;;;4886951;29;20440;-71
2021/11/18 06:10:31;;;;;;;11.50;5.10;;;7.30;99.90;;;;;;4886543;29;20490;-72
2021/11/18 06:12:58;;;;;;;5.80;3.70;;;7.30;99.90;;;;;;4887598;29;20519;-72
2021/11/18 06:15:25;;;;;;;12.87;4.40;;;7.30;99.90;;;;;;4886094;29;20462;-68
2021/11/18 06:17:51;;;;;;;9.23;4.10;;;7.30;99.90;;;;;;4888513;29;20475;-72
2021/11/18 06:20:20;;;;;;;7.37;3.50;;;7.30;99.90;;;;;;4889529;29;20451;-71
2021/11/18 06:22:48;;;;;;;25.47;3.80;;;7.30;99.90;;;;;;4889937;29;20455;-69
2021/11/18 06:25:18;;;;;;;16.30;4.53;;;7.30;99.90;;;;;;4889987;29;20467;-70
2021/11/18 06:27:46;;;;;;;8.93;3.67;;;7.30;99.90;;;;;;4890051;29;20507;-71
2021/11/18 06:30:16;;;;;;;9.93;4.67;;;7.30;99.90;;;;;;4890520;29;20462;-71
2021/11/18 06:32:43;;;;;;;11.17;4.00;;;7.30;99.90;;;;;;4890262;29;20790;-70
2021/11/18 06:35:10;;;;;;;10.87;4.07;;;7.30;99.90;;;;;;4889811;29;20470;-70
2021/11/18 06:37:38;;;;;;;10.90;3.50;;;7.30;99.90;;;;;;4888971;29;20483;-66
2021/11/18 06:40:07;;;;;;;12.30;4.07;;;7.30;99.90;;;;;;4888873;29;20460;-72
2021/11/18 06:42:34;;;;;;;8.00;4.30;;;7.40;99.90;;;;;;4888982;29;20438;-73
2021/11/18 06:45:01;;;;;;;21.97;5.50;;;7.40;99.90;;;;;;4889523;29;20769;-67
2021/11/18 06:47:28;;;;;;;8.80;4.30;;;7.40;99.90;;;;;;4888350;29;20451;-70
2021/11/18 06:49:54;;;;;;;14.97;3.90;;;7.40;99.90;;;;;;4888310;29;20455;-67
2021/11/18 06:52:21;;;;;;;11.47;4.60;;;7.40;99.90;;;;;;4888549;29;20494;-72
2021/11/18 06:54:49;;;;;;;7.30;3.60;;;7.50;99.90;;;;;;4888234;29;20512;-70
2021/11/18 06:57:17;;;;;;;13.57;4.90;;;7.50;99.90;;;;;;4888217;29;20499;-67
2021/11/18 06:59:44;;;;;;;6.00;3.27;;;7.60;99.90;;;;;;4887695;29;20538;-70
2021/11/18 07:02:11;;;;;;;8.13;3.60;;;7.60;99.90;;;;;;4888060;29;20435;-69
2021/11/18 07:04:43;;;;;;;5.87;3.80;;;7.60;99.90;;;;;;4887639;29;20459;-66
2021/11/18 07:07:10;;;;;;;13.00;4.70;;;7.70;99.90;;;;;;4887780;29;20491;-71
2021/11/18 07:09:37;;;;;;;5.80;3.20;;;7.70;99.90;;;;;;4894054;29;20451;-71
2021/11/18 07:12:07;;;;;;;16.10;4.20;;;7.70;99.90;;;;;;4896080;29;20489;-71
2021/11/18 07:14:35;;;;;;;11.90;3.60;;;7.70;99.90;;;;;;4890544;23;20499;-72
2021/11/18 07:17:04;;;;;;;8.80;3.73;;;7.70;99.90;;;;;;4881009;29;20470;-72
2021/11/18 07:19:33;;;;;;;7.40;3.27;;;7.80;99.90;;;;;;4892186;23;20492;-71
2021/11/18 07:22:01;;;;;;;10.87;3.73;;;7.80;99.90;;;;;;4876906;29;20445;-53
2021/11/18 07:24:28;;;;;;;6.43;3.23;;;7.80;99.90;;;;;;4887543;29;20436;-51
2021/11/18 07:26:55;;;;;;;8.60;4.13;;;7.80;99.90;;;;;;4891919;29;20451;-55
2021/11/18 07:29:23;;;;;;;14.80;3.57;;;7.80;99.90;;;;;;4884356;29;20473;-51
2021/11/18 07:31:53;;;;;;;6.47;4.10;;;7.90;99.90;;;;;;4895727;29;20454;-55
2021/11/18 07:34:20;;;;;;;15.30;4.50;;;7.90;99.90;;;;;;4891007;29;20475;-55
2021/11/18 07:36:47;;;;;;;13.20;6.53;;;7.90;99.90;;;;;;4897561;23;20527;-49
2021/11/18 07:39:18;;;;;;;12.63;3.70;;;8.00;99.90;;;;;;4890726;29;20588;-53
2021/11/18 07:41:47;;;;;;;9.40;3.30;;;8.00;99.90;;;;;;4900533;23;20577;-50
2021/11/18 07:44:14;;;;;;;11.90;3.30;;;8.00;99.90;;;;;;4891704;29;20499;-56
2021/11/18 07:46:43;;;;;;;9.70;3.60;;;8.00;99.90;;;;;;4886773;23;20519;-53
2021/11/18 07:49:10;;;;;;;11.87;3.87;;;8.00;99.90;;;;;;4871198;29;20489;-51
2021/11/18 07:51:38;;;;;;;14.00;4.50;;;8.10;99.90;;;;;;4887118;23;20539;-53
2021/11/18 07:54:05;;;;;;;8.17;4.27;;;8.10;99.90;;;;;;4889815;29;20459;-52
2021/11/18 07:56:32;;;;;;;7.10;4.00;;;8.20;99.90;;;;;;4910718;23;20503;-54
2021/11/18 07:58:59;;;;;;;13.77;5.43;;;8.20;99.90;;;;;;4889388;29;20495;-54
2021/11/18 08:01:27;;;;;;;11.50;4.50;;;8.20;99.90;;;;;;4897070;23;20510;-54
2021/11/18 08:03:55;;;;;;;5.60;3.33;;;8.20;99.90;;;;;;4890399;29;20451;-53
2021/11/18 08:06:24;;;;;;;10.60;4.67;;;8.30;99.90;;;;;;4911426;23;20492;-54
2021/11/18 08:08:51;;;;;;;8.87;4.73;;;8.30;99.90;;;;;;4889834;29;20440;-55
2021/11/18 08:11:21;;;;;;;10.10;4.37;;;8.40;99.90;;;;;;4896764;23;20455;-54
2021/11/18 08:13:48;;;;;;;13.73;4.23;;;8.40;99.90;;;;;;4871132;29;20459;-54
2021/11/18 08:19:06;;;;;;;10.73;4.20;;;8.40;99.90;;;;;;4896309;23;20494;-55
2021/11/18 08:21:34;;;;;;;10.93;3.80;;;8.50;99.90;;;;;;4898768;23;20471;-49
2021/11/18 08:24:02;;;;;;;19.40;3.73;;;8.40;99.90;;;;;;4877827;29;20480;-52
2021/11/18 08:26:32;;;;;;;11.63;3.80;;;8.40;99.90;;;;;;4881124;29;20520;-52
2021/11/18 08:29:07;;;;;;;10.30;4.07;;;8.50;99.90;;;;;;4882795;23;20522;-54
2021/11/18 08:31:44;;;;;;;12.53;4.67;;;8.50;99.90;;;;;;4869734;29;20448;-56
2021/11/18 08:34:20;;;;;;;12.03;4.47;;;8.50;99.90;;;;;;4870896;29;20452;-53
2021/11/18 08:36:52;;;;;;;6.33;4.10;;;8.50;99.90;;;;;;4871346;29;20478;-50
2021/11/18 08:39:24;;;;;;;9.53;4.30;;;8.40;99.90;;;;;;4872748;29;20505;-51
2021/11/18 08:41:54;;;;;;;10.07;4.30;;;8.50;99.90;;;;;;4879272;29;20503;-53
2021/11/18 08:44:22;;;;;;;8.60;3.70;;;8.50;99.90;;;;;;4871479;29;20481;-56
2021/11/18 08:46:51;;;;;;;7.93;4.10;;;8.60;99.90;;;;;;4868494;29;20484;-55
2021/11/18 08:49:22;;;;;;;12.63;3.80;;;8.60;99.90;;;;;;4907749;23;20530;-54
2021/11/18 08:51:50;;;;;;;5.40;3.90;;;8.70;99.90;;;;;;4914664;29;20542;-56
2021/11/18 08:54:20;;;;;;;10.73;4.03;;;8.70;99.90;;;;;;4909664;23;20495;-51
2021/11/18 08:56:47;;;;;;;12.43;4.30;;;8.70;99.90;;;;;;4896036;29;20443;-55
2021/11/18 08:59:15;;;;;;;11.60;4.27;;;8.80;99.90;;;;;;4913276;23;20490;-50
2021/11/18 09:01:46;;;;;;;12.00;4.20;;;8.70;99.90;;;;;;4915786;29;20470;-50
2021/11/18 09:04:16;;;;;;;6.90;4.90;;;8.80;99.90;;;;;;4921151;23;20489;-50
2021/11/18 09:06:45;;;;;;;7.37;3.50;;;8.80;99.90;;;;;;4915892;29;20458;-53
2021/11/18 09:09:15;;;;;;;13.33;4.50;;;8.80;99.90;;;;;;4922460;23;20528;-50
2021/11/18 09:11:44;;;;;;;9.23;4.97;;;8.80;99.90;;;;;;4915723;29;20454;-52
2021/11/18 09:14:11;;;;;;;6.43;4.73;;;8.80;99.90;;;;;;4917181;23;20499;-52
2021/11/18 09:16:41;;;;;;;12.83;3.93;;;8.80;99.90;;;;;;4897300;29;20464;-53
2021/11/18 09:19:10;;;;;;;17.03;5.20;;;8.80;99.90;;;;;;4907923;23;20486;-55
2021/11/18 09:21:40;;;;;;;10.10;4.33;;;8.80;99.90;;;;;;4916257;29;20449;-51
2021/11/18 09:24:11;;;;;;;13.30;4.23;;;8.80;99.90;;;;;;4938958;23;20459;-48
2021/11/18 09:26:41;;;;;;;16.07;5.87;;;8.80;99.90;;;;;;4896132;29;20876;-53
2021/11/18 09:31:36;;;;;;;8.40;5.53;;;8.80;99.90;;;;;;4876884;29;20462;-49
2021/11/18 09:34:04;;;;;;;9.70;3.80;;;8.80;99.90;;;;;;4878627;29;20461;-52
2021/11/18 09:36:33;;;;;;;10.00;4.83;;;8.90;99.90;;;;;;4902123;23;20511;-52
2021/11/18 09:39:01;;;;;;;8.90;4.57;;;8.90;99.90;;;;;;4896965;29;20475;-51
2021/11/18 09:41:55;;;;;;;12.63;5.13;;;9.00;99.90;;;;;;4903170;23;20495;-56
2021/11/18 09:47:58;;;;;;;9.10;5.90;;;9.00;99.90;;;;;;4917124;23;20549;-49
2021/11/18 09:50:35;;;;;;;18.77;6.77;;;9.00;99.90;;;;;;4889620;23;20475;-54
2021/11/18 09:53:12;;;;;;;9.10;4.13;;;9.00;99.90;;;;;;4899250;29;20438;-53
2021/11/18 09:55:44;;;;;;;16.63;5.47;;;9.00;99.90;;;;;;4921949;23;21652;-54
2021/11/18 09:58:26;;;;;;;19.03;5.40;;;9.10;99.90;;;;;;4899707;29;20482;-53
2021/11/18 10:01:06;;;;;;;10.80;4.23;;;9.10;99.90;;;;;;4908097;23;20496;-56
2021/11/18 10:03:38;;;;;;;8.00;4.77;;;9.20;99.90;;;;;;4899860;29;20439;-56
2021/11/18 10:06:27;;;;;;;16.13;5.50;;;9.20;99.90;;;;;;4906575;23;20494;-49
2021/11/18 10:09:13;;;;;;;17.90;6.10;;;9.20;99.90;;;;;;4899241;29;20609;-53
2021/11/18 10:11:50;;;;;;;17.63;5.93;;;9.30;99.90;;;;;;4937205;23;20499;-52
2021/11/18 10:14:35;;;;;;;13.77;4.30;;;9.30;99.90;;;;;;4890203;29;20788;-55
2021/11/18 10:17:16;;;;;;;12.00;6.40;;;9.40;99.90;;;;;;4897007;23;21208;-53
2021/11/18 10:19:47;;;;;;;13.30;5.33;;;9.40;99.90;;;;;;4889657;29;20478;-51
2021/11/18 10:22:21;;;;;;;15.20;4.13;;;9.40;99.90;;;;;;4897194;23;20495;-53
2021/11/18 10:24:53;;;;;;;13.17;3.97;;;9.50;99.90;;;;;;4889357;29;20431;-53
2021/11/18 10:27:30;;;;;;;11.80;7.30;;;9.50;99.90;;;;;;4896825;23;20582;-57
2021/11/18 10:30:15;;;;;;;19.53;4.53;;;9.60;99.90;;;;;;4891385;29;20474;-56
2021/11/18 10:32:54;;;;;;;15.77;4.37;;;9.60;99.90;;;;;;4898017;23;20573;-53
2021/11/18 10:35:31;;;;;;;11.03;4.63;;;9.60;99.90;;;;;;4889848;29;20447;-53
2021/11/18 10:38:18;;;;;;;10.87;4.90;;;9.70;99.90;;;;;;4896663;23;20538;-55
2021/11/18 10:41:02;;;;;;;15.00;6.10;;;9.80;99.90;;;;;;4889541;29;20519;-54
2021/11/18 10:43:33;;;;;;;7.13;4.93;;;9.80;99.90;;;;;;4911660;23;20499;-54
2021/11/18 10:46:15;;;;;;;15.77;4.27;;;9.80;99.90;;;;;;4889147;29;20452;-52
2021/11/18 10:48:56;;;;;;;25.63;6.20;;;9.90;99.90;;;;;;4896164;23;20543;-51
2021/11/18 10:51:33;;;;;;;17.53;5.00;;;9.90;99.90;;;;;;4888608;29;20478;-55
2021/11/18 10:54:03;;;;;;;13.53;5.47;;;9.90;99.90;;;;;;4895991;23;20509;-54
2021/11/18 10:56:33;;;;;;;11.43;3.47;;;9.90;99.90;;;;;;4888591;29;20456;-48
2021/11/18 10:59:12;;;;;;;10.10;3.37;;;9.90;99.90;;;;;;4896241;23;20957;-54
2021/11/18 11:01:44;;;;;;;11.30;4.40;;;9.90;99.90;;;;;;4890879;29;20502;-56
2021/11/18 11:04:47;;;;;;;10.03;5.67;;;10.10;99.90;;;;;;4909077;23;20499;-54
2021/11/18 11:07:15;;;;;;;15.83;4.90;;;10.10;99.90;;;;;;4887143;29;20490;-54
2021/11/18 11:09:44;;;;;;;25.63;4.83;;;10.10;99.90;;;;;;4893582;23;20513;-53
2021/11/18 11:12:20;;;;;;;18.23;4.60;;;10.10;99.90;;;;;;4886587;29;20507;-49
2021/11/18 11:15:19;;;;;;;13.53;4.63;;;10.10;99.90;;;;;;4880577;23;20504;-56
2021/11/18 11:21:10;;;;;;;10.00;6.00;;;10.20;99.90;;;;;;4883109;23;20492;-53
2021/11/18 11:23:53;;;;;;;7.80;4.67;;;10.30;99.90;;;;;;4876010;23;20612;-51
2021/11/18 11:27:03;;;;;;;11.50;5.47;;;10.20;99.90;;;;;;4865961;29;20504;-53
2021/11/18 11:29:41;;;;;;;14.43;5.77;;;10.30;99.90;;;;;;4884048;23;20531;-52
2021/11/18 11:32:16;;;;;;;6.07;4.20;;;10.30;99.90;;;;;;4887815;29;20442;-50
2021/11/18 11:35:03;;;;;;;8.50;4.10;;;10.40;99.90;;;;;;4892834;23;20979;-51
2021/11/18 11:37:47;;;;;;;11.03;5.53;;;10.50;99.90;;;;;;4885837;29;20435;-51
2021/11/18 11:40:22;;;;;;;9.60;4.13;;;10.50;99.90;;;;;;4894278;23;20869;-52
2021/11/18 11:43:20;;;;;;;5.97;3.97;;;10.50;99.90;;;;;;4886239;29;20443;-52
2021/11/18 11:45:56;;;;;;;19.10;6.23;;;10.50;99.90;;;;;;4895309;23;20571;-50
2021/11/18 11:48:37;;;;;;;11.37;4.87;;;10.50;99.90;;;;;;4887727;29;20496;-50
2021/11/18 11:51:34;;;;;;;10.50;4.43;;;10.50;99.90;;;;;;4893013;23;20499;-51
2021/11/18 11:57:33;;;;;;;5.70;3.40;;;10.60;99.90;;;;;;4893292;23;20491;-51
2021/11/18 12:02:39;;;;;;;7.87;4.63;;;10.60;99.90;;;;;;4890762;23;20582;-52
2021/11/18 12:07:53;;;;;;;18.53;4.77;;;10.70;99.90;;;;;;4906027;23;20490;-53
2021/11/18 12:12:57;;;;;;;7.90;4.27;;;10.70;99.90;;;;;;4906938;23;20974;-54
2021/11/18 12:15:24;;;;;;;9.53;4.10;;;10.70;99.90;;;;;;4902798;29;20441;-55
2021/11/18 12:18:01;;;;;;;14.87;4.60;;;10.80;99.90;;;;;;4910556;23;20498;-48
2021/11/18 12:20:33;;;;;;;20.60;5.90;;;10.70;99.90;;;;;;4903884;29;20856;-50
2021/11/18 12:23:05;;;;;;;6.67;3.93;;;10.80;99.90;;;;;;4910537;23;20498;-49
2021/11/18 12:25:45;;;;;;;9.40;5.00;;;10.80;99.90;;;;;;4903154;29;20482;-47
2021/11/18 12:28:27;;;;;;;8.70;4.80;;;10.80;99.90;;;;;;4904174;29;20442;-50
2021/11/18 12:31:17;;;;;;;13.53;5.03;;;10.80;99.90;;;;;;4906648;29;21091;-53
2021/11/18 12:33:53;;;;;;;18.73;5.10;;;10.80;99.90;;;;;;4895984;29;20482;-51
2021/11/18 12:36:33;;;;;;;8.43;3.17;;;10.80;99.90;;;;;;4903607;29;20446;-53
2021/11/18 12:39:24;;;;;;;16.30;5.90;;;10.90;99.90;;;;;;4903187;29;20501;-53
2021/11/18 12:42:16;;;;;;;18.33;3.60;;;10.80;99.90;;;;;;4903753;29;20431;-47
2021/11/18 12:44:56;;;;;;;17.27;5.20;;;10.80;99.90;;;;;;4903576;29;20565;-53
2021/11/18 12:47:55;;;;;;;12.83;5.90;;;10.80;99.90;;;;;;4903508;29;21011;-50
2021/11/18 12:50:43;;;;;;;11.63;5.80;;;10.80;99.90;;;;;;4903223;29;20481;-50
2021/11/18 12:53:35;;;;;;;16.40;4.70;;;10.80;99.90;;;;;;4903505;29;20438;-51
2021/11/18 12:56:23;;;;;;;16.50;5.30;;;10.80;99.90;;;;;;4904771;29;20499;-50
2021/11/18 12:58:54;;;;;;;8.50;4.47;;;10.80;99.90;;;;;;4904410;29;20435;-52
2021/11/18 13:01:57;;;;;;;17.83;5.70;;;10.90;99.90;;;;;;4902861;29;20505;-48
2021/11/18 13:04:50;;;;;;;7.67;3.50;;;10.80;99.90;;;;;;4903282;29;20518;-52
2021/11/18 13:07:49;;;;;;;19.43;5.00;;;10.90;99.90;;;;;;4903166;29;20434;-52
2021/11/18 13:10:40;;;;;;;12.30;4.97;;;10.90;99.90;;;;;;4917106;23;20569;-54
2021/11/18 13:13:35;;;;;;;17.50;4.97;;;10.90;99.90;;;;;;4902525;29;20484;-50
2021/11/18 13:16:38;;;;;;;20.33;6.33;;;10.80;99.90;;;;;;4891168;23;20970;-49
2021/11/18 13:19:16;;;;;;;8.47;3.70;;;10.80;99.90;;;;;;4865674;29;20491;-52
2021/11/18 13:21:49;;;;;;;7.50;4.33;;;10.80;99.90;;;;;;4865239;29;20476;-49
2021/11/18 13:24:16;;;;;;;5.77;3.90;;;10.80;99.90;;;;;;4872427;29;20440;-51
2021/11/18 13:26:49;;;;;;;9.10;4.67;;;10.80;99.90;;;;;;4886818;23;20514;-53
2021/11/18 13:29:19;;;;;;;9.70;3.60;;;10.90;99.90;;;;;;4864748;29;20451;-51
2021/11/18 13:31:49;;;;;;;16.33;3.87;;;10.80;99.90;;;;;;4875864;29;20463;-52
2021/11/18 13:34:22;;;;;;;7.87;4.27;;;10.90;99.90;;;;;;4877740;29;20527;-51
2021/11/18 13:37:02;;;;;;;15.40;4.07;;;10.90;99.90;;;;;;4885196;23;20499;-47
2021/11/18 13:39:38;;;;;;;14.10;4.27;;;10.80;99.90;;;;;;4888884;29;20498;-53